Time;durP1;ratioP1;P1;durP2;ratioP2;P2;SDS_P1;SDS_P2;PMS_P1;PMS_P2;Temp;Humidity;BMP_temperature;BMP_pressure;BME280_temperature;BME280_humidity;BME280_pressure;Samples;Min_cycle;Max_cycle;Signal;HPM_P1;HPM_P2
2022/09/02 00:01:54;;;;;;;;;;;29.60;89.60;;;;;;5104765;28;19908;-55
2022/09/02 00:04:24;;;;;;;;;;;29.60;89.40;;;;;;5105171;28;20070;-52
2022/09/02 00:06:51;;;;;;;;;;;29.60;89.40;;;;;;5104577;28;19908;-49
2022/09/02 00:09:18;;;;;;;;;;;29.60;89.00;;;;;;5104763;28;19950;-54
2022/09/02 00:11:46;;;;;;;;;;;29.60;88.80;;;;;;5104749;28;19912;-51
2022/09/02 00:14:14;;;;;;;;;;;29.60;88.80;;;;;;5104358;28;19959;-52
2022/09/02 00:16:43;;;;;;;;;;;29.60;89.00;;;;;;5104503;28;19971;-54
2022/09/02 00:19:10;;;;;;;;;;;29.60;89.00;;;;;;5104656;28;19916;-53
2022/09/02 00:21:36;;;;;;;;;;;29.60;88.80;;;;;;5104463;28;20183;-54
2022/09/02 00:24:03;;;;;;;;;;;29.50;89.00;;;;;;5104498;28;20138;-55
2022/09/02 00:26:30;;;;;;;;;;;29.50;88.80;;;;;;5104763;28;20159;-51
2022/09/02 00:28:56;;;;;;;;;;;29.50;88.80;;;;;;5104546;28;19905;-51
2022/09/02 00:31:24;;;;;;;;;;;29.50;88.90;;;;;;5104300;28;19912;-51
2022/09/02 00:33:50;;;;;;;;;;;29.50;89.10;;;;;;5104336;28;19904;-51
2022/09/02 00:36:16;;;;;;;;;;;29.50;89.30;;;;;;5104456;28;19912;-51
2022/09/02 00:38:42;;;;;;;;;;;29.50;89.30;;;;;;5104274;28;20127;-57
2022/09/02 00:41:09;;;;;;;;;;;29.50;89.20;;;;;;5104908;28;19971;-52
2022/09/02 00:43:44;;;;;;;;;;;29.50;89.50;;;;;;5104234;28;20119;-56
2022/09/02 00:46:12;;;;;;;;;;;29.50;89.60;;;;;;5104597;28;19913;-53
2022/09/02 00:48:41;;;;;;;;;;;29.50;89.60;;;;;;5104255;28;19915;-57
2022/09/02 00:51:08;;;;;;;;;;;29.50;89.50;;;;;;5104581;28;19954;-52
2022/09/02 00:53:38;;;;;;;;;;;29.50;89.40;;;;;;5104454;28;19909;-57
2022/09/02 00:56:05;;;;;;;;;;;29.40;89.30;;;;;;5104603;28;20101;-53
2022/09/02 00:58:34;;;;;;;;;;;29.40;89.30;;;;;;5104285;28;20231;-55
2022/09/02 01:01:01;;;;;;;;;;;29.50;89.30;;;;;;5104534;28;19921;-55
2022/09/02 01:03:28;;;;;;;;;;;29.40;89.40;;;;;;5107226;28;19908;-55
2022/09/02 01:05:55;;;;;;;;;;;29.40;89.60;;;;;;5108857;28;19919;-51
2022/09/02 01:08:24;;;;;;;;;;;29.40;89.40;;;;;;5108201;28;19908;-52
2022/09/02 01:10:56;;;;;;;;;;;29.40;89.30;;;;;;5108564;28;20127;-53
2022/09/02 01:13:24;;;;;;;;;;;29.40;89.20;;;;;;5108120;28;20219;-54
2022/09/02 01:15:55;;;;;;;;;;;29.40;89.10;;;;;;5107893;28;19966;-52
2022/09/02 01:18:27;;;;;;;;;;;29.40;89.10;;;;;;5107985;28;19962;-55
2022/09/02 01:20:54;;;;;;;;;;;29.40;89.20;;;;;;5108190;28;19949;-52
2022/09/02 01:23:20;;;;;;;;;;;29.40;89.10;;;;;;5107985;28;19915;-53
2022/09/02 01:25:47;;;;;;;;;;;29.40;88.90;;;;;;5108395;28;20099;-54
2022/09/02 01:28:14;;;;;;;;;;;29.40;88.80;;;;;;5107497;28;19908;-51
2022/09/02 01:30:43;;;;;;;;;;;29.40;88.70;;;;;;5107982;28;19920;-50
2022/09/02 01:33:10;;;;;;;;;;;29.40;88.80;;;;;;5107656;28;19954;-56
2022/09/02 01:35:36;;;;;;;;;;;29.40;88.70;;;;;;5108032;28;19909;-51
2022/09/02 01:38:03;;;;;;;;;;;29.40;88.60;;;;;;5107625;28;20218;-55
2022/09/02 01:40:32;;;;;;;;;;;29.30;88.50;;;;;;5107967;28;19912;-52
2022/09/02 01:43:04;;;;;;;;;;;29.30;88.50;;;;;;5107456;28;19908;-52
2022/09/02 01:45:31;;;;;;;;;;;29.30;88.60;;;;;;5107423;28;19919;-52
2022/09/02 01:47:57;;;;;;;;;;;29.30;88.60;;;;;;5107525;28;19904;-53
2022/09/02 01:50:23;;;;;;;;;;;29.30;88.70;;;;;;5107514;28;20156;-53
2022/09/02 01:52:49;;;;;;;;;;;29.30;88.90;;;;;;5107305;28;19979;-52
2022/09/02 01:55:15;;;;;;;;;;;29.30;88.70;;;;;;5107623;28;19912;-54
2022/09/02 01:57:41;;;;;;;;;;;29.30;88.50;;;;;;5107271;28;19908;-52
2022/09/02 02:00:08;;;;;;;;;;;29.30;88.40;;;;;;5107445;28;19975;-53
2022/09/02 02:02:35;;;;;;;;;;;29.30;88.80;;;;;;5107360;28;19911;-51
2022/09/02 02:05:01;;;;;;;;;;;29.30;89.30;;;;;;5107376;28;19984;-53
2022/09/02 02:07:27;;;;;;;;;;;29.30;89.30;;;;;;5107078;28;19908;-54
2022/09/02 02:09:53;;;;;;;;;;;29.30;88.80;;;;;;5107259;28;20033;-54
2022/09/02 02:12:20;;;;;;;;;;;29.20;88.50;;;;;;5107028;28;19904;-52
2022/09/02 02:14:46;;;;;;;;;;;29.20;88.50;;;;;;5106641;28;20183;-52
2022/09/02 02:17:12;;;;;;;;;;;29.20;88.50;;;;;;5106901;28;19904;-53
2022/09/02 02:19:38;;;;;;;;;;;29.20;88.40;;;;;;5106989;28;20204;-54
2022/09/02 02:22:04;;;;;;;;;;;29.20;88.40;;;;;;5106762;28;19914;-52
2022/09/02 02:24:30;;;;;;;;;;;29.20;88.60;;;;;;5107046;28;19912;-53
2022/09/02 02:26:57;;;;;;;;;;;29.20;88.50;;;;;;5106627;28;20193;-51
2022/09/02 02:29:23;;;;;;;;;;;29.10;88.50;;;;;;5106801;28;19979;-49
2022/09/02 02:31:49;;;;;;;;;;;29.10;88.40;;;;;;5106520;28;19912;-54
2022/09/02 02:34:15;;;;;;;;;;;29.10;88.40;;;;;;5106535;28;19912;-51
2022/09/02 02:36:41;;;;;;;;;;;29.10;88.70;;;;;;5106447;28;19904;-54
2022/09/02 02:39:08;;;;;;;;;;;29.10;88.80;;;;;;5106619;28;20196;-55
2022/09/02 02:41:35;;;;;;;;;;;29.10;88.80;;;;;;5106392;28;19935;-52
2022/09/02 02:44:02;;;;;;;;;;;29.00;88.90;;;;;;5106222;28;19916;-52
2022/09/02 02:46:29;;;;;;;;;;;29.00;88.90;;;;;;5106616;28;19908;-54
2022/09/02 02:48:58;;;;;;;;;;;29.00;89.20;;;;;;5106215;28;19907;-52
2022/09/02 02:51:24;;;;;;;;;;;29.00;89.30;;;;;;5106127;28;19994;-54
2022/09/02 02:53:50;;;;;;;;;;;29.00;89.70;;;;;;5106072;28;19904;-54
2022/09/02 02:56:16;;;;;;;;;;;29.00;89.50;;;;;;5106036;28;19931;-56
2022/09/02 02:58:43;;;;;;;;;;;28.90;89.50;;;;;;5105797;28;20188;-53
2022/09/02 03:01:10;;;;;;;;;;;28.90;89.70;;;;;;5106420;28;19908;-54
2022/09/02 03:03:36;;;;;;;;;;;28.90;89.90;;;;;;5106354;28;19931;-52
2022/09/02 03:06:03;;;;;;;;;;;28.90;89.90;;;;;;5105847;28;19943;-52
2022/09/02 03:08:34;;;;;;;;;;;28.90;89.90;;;;;;5105966;28;20220;-52
2022/09/02 03:11:01;;;;;;;;;;;28.90;89.80;;;;;;5106214;28;19916;-54
2022/09/02 03:13:27;;;;;;;;;;;28.80;89.80;;;;;;5105715;28;19910;-52
2022/09/02 03:15:53;;;;;;;;;;;28.90;89.90;;;;;;5106133;28;19920;-57
2022/09/02 03:18:19;;;;;;;;;;;28.80;89.40;;;;;;5105850;28;19911;-52
2022/09/02 03:20:45;;;;;;;;;;;28.80;89.30;;;;;;5106000;28;19912;-52
2022/09/02 03:23:12;;;;;;;;;;;28.80;89.30;;;;;;5105716;28;19908;-55
2022/09/02 03:25:40;;;;;;;;;;;28.80;89.00;;;;;;5105526;28;19931;-55
2022/09/02 03:28:06;;;;;;;;;;;28.80;89.00;;;;;;5105545;28;20254;-53
2022/09/02 03:30:33;;;;;;;;;;;28.80;88.80;;;;;;5106029;28;19958;-52
2022/09/02 03:33:00;;;;;;;;;;;28.80;89.10;;;;;;5105582;28;19907;-52
2022/09/02 03:35:26;;;;;;;;;;;28.80;89.50;;;;;;5105786;28;19919;-53
2022/09/02 03:37:53;;;;;;;;;;;28.80;89.50;;;;;;5105511;28;19904;-54
2022/09/02 03:40:21;;;;;;;;;;;28.70;89.60;;;;;;5105736;28;20135;-52
2022/09/02 03:42:47;;;;;;;;;;;28.70;90.00;;;;;;5105159;28;19943;-51
2022/09/02 03:45:16;;;;;;;;;;;28.70;90.00;;;;;;5105662;28;20196;-54
2022/09/02 03:47:49;;;;;;;;;;;28.70;89.90;;;;;;5105225;28;19975;-54
2022/09/02 03:50:21;;;;;;;;;;;28.70;89.90;;;;;;5105243;28;19916;-55
2022/09/02 03:52:48;;;;;;;;;;;28.70;90.00;;;;;;5105266;28;19908;-62
2022/09/02 03:55:14;;;;;;;;;;;28.70;90.10;;;;;;5105356;28;19916;-58
2022/09/02 03:57:41;;;;;;;;;;;28.70;90.20;;;;;;5105063;28;19904;-55
2022/09/02 04:00:13;;;;;;;;;;;28.60;90.20;;;;;;5105287;28;19963;-53
2022/09/02 04:02:39;;;;;;;;;;;28.70;90.30;;;;;;5105029;28;19900;-56
2022/09/02 04:05:05;;;;;;;;;;;28.70;90.40;;;;;;5105326;28;20188;-54
2022/09/02 04:07:31;;;;;;;;;;;28.60;90.40;;;;;;5104890;28;19931;-59
2022/09/02 04:09:58;;;;;;;;;;;28.60;90.30;;;;;;5105143;28;19919;-52
2022/09/02 04:12:24;;;;;;;;;;;28.60;90.30;;;;;;5104499;28;19970;-55
2022/09/02 04:14:50;;;;;;;;;;;28.60;90.40;;;;;;5104873;28;19920;-53
2022/09/02 04:17:16;;;;;;;;;;;28.60;90.30;;;;;;5104829;28;19904;-54
2022/09/02 04:19:42;;;;;;;;;;;28.60;90.30;;;;;;5104790;28;19912;-54
2022/09/02 04:22:08;;;;;;;;;;;28.60;90.40;;;;;;5104814;28;19927;-54
2022/09/02 04:24:34;;;;;;;;;;;28.60;90.40;;;;;;5104741;28;19954;-53
2022/09/02 04:27:01;;;;;;;;;;;28.60;90.50;;;;;;5104504;28;20104;-54
2022/09/02 04:29:27;;;;;;;;;;;28.60;90.60;;;;;;5104654;28;19947;-52
2022/09/02 04:31:53;;;;;;;;;;;28.60;90.60;;;;;;5104567;28;19954;-52
2022/09/02 04:34:19;;;;;;;;;;;28.60;90.70;;;;;;5104525;28;19908;-52
2022/09/02 04:36:46;;;;;;;;;;;28.60;90.80;;;;;;5104559;28;19923;-53
2022/09/02 04:39:12;;;;;;;;;;;28.50;90.80;;;;;;5104546;28;19912;-53
2022/09/02 04:41:38;;;;;;;;;;;28.50;90.80;;;;;;5104479;28;19912;-51
2022/09/02 04:44:06;;;;;;;;;;;28.50;90.70;;;;;;5104435;28;20169;-53
2022/09/02 04:46:32;;;;;;;;;;;28.50;90.70;;;;;;5104438;28;19931;-53
2022/09/02 04:48:58;;;;;;;;;;;28.50;90.70;;;;;;5104328;28;19908;-56
2022/09/02 04:51:25;;;;;;;;;;;28.50;90.70;;;;;;5104268;28;19919;-54
2022/09/02 04:53:52;;;;;;;;;;;28.50;90.70;;;;;;5104260;28;19908;-58
2022/09/02 04:56:20;;;;;;;;;;;28.50;90.80;;;;;;5104360;28;19914;-54
2022/09/02 04:58:46;;;;;;;;;;;28.50;90.90;;;;;;5104240;28;19911;-56
2022/09/02 05:01:14;;;;;;;;;;;28.50;90.90;;;;;;5104170;28;19920;-56
2022/09/02 05:03:41;;;;;;;;;;;28.40;90.80;;;;;;5104125;28;20104;-52
2022/09/02 05:06:09;;;;;;;;;;;28.40;90.90;;;;;;5104524;28;19916;-54
2022/09/02 05:08:37;;;;;;;;;;;28.40;91.00;;;;;;5104445;28;19908;-54
2022/09/02 05:11:07;;;;;;;;;;;28.40;91.10;;;;;;5104648;28;20029;-53
2022/09/02 05:13:34;;;;;;;;;;;28.40;91.10;;;;;;5104135;28;20416;-58
2022/09/02 05:16:00;;;;;;;;;;;28.40;91.20;;;;;;5103864;28;19927;-53
2022/09/02 05:18:26;;;;;;;;;;;28.40;91.20;;;;;;5104165;28;20307;-51
2022/09/02 05:20:52;;;;;;;;;;;28.30;91.20;;;;;;5104236;28;20180;-51
2022/09/02 05:23:18;;;;;;;;;;;28.30;91.10;;;;;;5104264;28;20107;-58
2022/09/02 05:25:45;;;;;;;;;;;28.30;91.20;;;;;;5104333;28;19946;-53
2022/09/02 05:28:11;;;;;;;;;;;28.30;91.10;;;;;;5103889;28;20192;-52
2022/09/02 05:30:38;;;;;;;;;;;28.30;91.10;;;;;;5104365;28;19940;-52
2022/09/02 05:33:04;;;;;;;;;;;28.30;91.20;;;;;;5103965;28;19908;-53
2022/09/02 05:35:30;;;;;;;;;;;28.30;91.40;;;;;;5104173;28;19953;-52
2022/09/02 05:37:57;;;;;;;;;;;28.30;91.50;;;;;;5103891;28;19962;-55
2022/09/02 05:40:23;;;;;;;;;;;28.20;91.50;;;;;;5104199;28;19912;-53
2022/09/02 05:42:49;;;;;;;;;;;28.20;91.60;;;;;;5103641;28;19908;-54
2022/09/02 05:45:15;;;;;;;;;;;28.20;91.70;;;;;;5104149;28;20100;-52
2022/09/02 05:47:41;;;;;;;;;;;28.20;91.80;;;;;;5103880;28;19904;-52
2022/09/02 05:50:08;;;;;;;;;;;28.20;91.60;;;;;;5107426;28;20049;-54
2022/09/02 05:52:34;;;;;;;;;;;28.20;91.60;;;;;;5107775;28;20200;-54
2022/09/02 05:55:02;;;;;;;;;;;28.20;91.50;;;;;;5107565;28;19946;-54
2022/09/02 05:57:28;;;;;;;;;;;28.20;91.70;;;;;;5107205;28;19904;-56
2022/09/02 05:59:55;;;;;;;;;;;28.20;91.40;;;;;;5107555;28;19912;-54
2022/09/02 06:02:22;;;;;;;;;;;28.20;91.40;;;;;;5107363;28;19904;-58
2022/09/02 06:04:50;;;;;;;;;;;28.20;91.50;;;;;;5107410;28;19918;-52
2022/09/02 06:07:18;;;;;;;;;;;28.20;91.50;;;;;;5107164;28;19904;-56
2022/09/02 06:09:44;;;;;;;;;;;28.20;91.50;;;;;;5107371;28;20129;-57
2022/09/02 06:12:11;;;;;;;;;;;28.10;91.50;;;;;;5106933;28;19919;-54
2022/09/02 06:14:38;;;;;;;;;;;28.10;91.50;;;;;;5106852;28;19928;-54
2022/09/02 06:17:04;;;;;;;;;;;28.10;91.50;;;;;;5107097;28;19915;-53
2022/09/02 06:19:33;;;;;;;;;;;28.10;91.50;;;;;;5106204;28;20827;-52
2022/09/02 06:22:00;;;;;;;;;;;28.10;91.50;;;;;;5107002;28;20390;-52
2022/09/02 06:24:27;;;;;;;;;;;28.10;91.50;;;;;;5106978;28;19915;-54
2022/09/02 06:26:53;;;;;;;;;;;28.10;91.50;;;;;;5106913;28;19939;-51
2022/09/02 06:29:20;;;;;;;;;;;28.10;91.60;;;;;;5106979;28;19928;-55
2022/09/02 06:31:47;;;;;;;;;;;28.10;91.80;;;;;;5106720;28;19982;-53
2022/09/02 06:34:15;;;;;;;;;;;28.10;91.60;;;;;;5107093;28;19919;-56
2022/09/02 06:36:42;;;;;;;;;;;28.10;91.60;;;;;;5106905;28;19908;-53
2022/09/02 06:39:10;;;;;;;;;;;28.10;91.60;;;;;;5106616;28;20103;-53
2022/09/02 06:41:37;;;;;;;;;;;28.10;91.60;;;;;;5106569;28;20150;-53
2022/09/02 06:44:04;;;;;;;;;;;28.10;91.70;;;;;;5106803;28;20257;-56
2022/09/02 06:46:31;;;;;;;;;;;28.00;91.50;;;;;;5106469;28;19908;-56
2022/09/02 06:48:58;;;;;;;;;;;28.10;91.50;;;;;;5106432;28;19904;-53
2022/09/02 06:51:25;;;;;;;;;;;28.10;91.50;;;;;;5106258;28;19978;-53
2022/09/02 06:53:51;;;;;;;;;;;28.00;91.50;;;;;;5106341;28;19967;-54
2022/09/02 06:56:18;;;;;;;;;;;28.00;91.50;;;;;;5106343;28;19979;-53
2022/09/02 06:58:44;;;;;;;;;;;28.00;91.60;;;;;;5106177;28;19955;-54
2022/09/02 07:01:16;;;;;;;;;;;28.00;91.60;;;;;;5105582;28;20014;-51
2022/09/02 07:06:27;;;;;;;;;;;28.00;91.60;;;;;;5106171;28;19958;-54
2022/09/02 07:08:53;;;;;;;;;;;28.00;91.50;;;;;;5105912;28;19983;-56
2022/09/02 07:11:20;;;;;;;;;;;28.00;91.60;;;;;;5105746;28;20200;-53
2022/09/02 07:13:47;;;;;;;;;;;28.00;91.60;;;;;;5106124;28;19949;-52
2022/09/02 07:16:14;;;;;;;;;;;27.90;91.60;;;;;;5105783;28;20227;-55
2022/09/02 07:18:40;;;;;;;;;;;28.00;91.70;;;;;;5105853;28;19927;-53
2022/09/02 07:21:10;;;;;;;;;;;28.00;91.80;;;;;;5106254;28;20188;-55
2022/09/02 07:23:36;;;;;;;;;;;27.90;91.70;;;;;;5105783;28;19908;-57
2022/09/02 07:26:02;;;;;;;;;;;27.90;91.70;;;;;;5106038;28;19915;-53
2022/09/02 07:28:28;;;;;;;;;;;27.90;91.60;;;;;;5105728;28;19908;-53
2022/09/02 07:30:55;;;;;;;;;;;27.90;91.50;;;;;;5106039;28;19916;-56
2022/09/02 07:33:21;;;;;;;;;;;27.90;91.50;;;;;;5105509;28;20047;-59
2022/09/02 07:35:48;;;;;;;;;;;27.90;91.40;;;;;;5106021;28;20204;-53
2022/09/02 07:38:14;;;;;;;;;;;27.90;91.40;;;;;;5105480;28;19977;-54
2022/09/02 07:40:41;;;;;;;;;;;27.90;91.40;;;;;;5105641;28;19984;-52
2022/09/02 07:43:09;;;;;;;;;;;27.90;91.40;;;;;;5105452;28;20155;-53
2022/09/02 07:45:36;;;;;;;;;;;27.90;91.30;;;;;;5105694;28;19975;-53
2022/09/02 07:48:06;;;;;;;;;;;27.90;91.30;;;;;;5105083;28;19916;-53
2022/09/02 07:50:32;;;;;;;;;;;27.90;91.30;;;;;;5105549;28;19919;-54
2022/09/02 07:52:58;;;;;;;;;;;27.90;91.30;;;;;;5105253;28;19908;-55
2022/09/02 07:55:25;;;;;;;;;;;27.90;91.30;;;;;;5105422;28;19912;-54
2022/09/02 07:57:53;;;;;;;;;;;27.80;91.40;;;;;;5105193;28;19915;-52
2022/09/02 08:00:21;;;;;;;;;;;27.80;91.40;;;;;;5105210;28;19908;-53
2022/09/02 08:02:48;;;;;;;;;;;27.80;91.40;;;;;;5104904;28;19908;-53
2022/09/02 08:05:14;;;;;;;;;;;27.80;91.50;;;;;;5105223;28;19912;-54
2022/09/02 08:07:41;;;;;;;;;;;27.80;91.50;;;;;;5105036;28;20200;-54
2022/09/02 08:10:09;;;;;;;;;;;27.80;91.50;;;;;;5104950;28;19916;-55
2022/09/02 08:12:36;;;;;;;;;;;27.80;91.50;;;;;;5104569;28;19905;-56
2022/09/02 08:15:04;;;;;;;;;;;27.80;91.50;;;;;;5104781;28;20116;-56
2022/09/02 08:17:30;;;;;;;;;;;27.80;91.50;;;;;;5104567;28;19909;-54
2022/09/02 08:19:57;;;;;;;;;;;27.80;91.60;;;;;;5104969;28;19908;-53
2022/09/02 08:22:24;;;;;;;;;;;27.80;91.60;;;;;;5104703;28;19908;-53
2022/09/02 08:24:50;;;;;;;;;;;27.80;91.70;;;;;;5104669;28;19916;-54
2022/09/02 08:27:16;;;;;;;;;;;27.80;91.70;;;;;;5104773;28;20179;-52
2022/09/02 08:29:42;;;;;;;;;;;27.80;91.70;;;;;;5104867;28;19912;-54
2022/09/02 08:32:08;;;;;;;;;;;27.80;91.80;;;;;;5104443;28;19908;-52
2022/09/02 08:34:34;;;;;;;;;;;27.70;91.80;;;;;;5104672;28;20117;-50
2022/09/02 08:37:00;;;;;;;;;;;27.70;91.80;;;;;;5104578;28;19912;-53
2022/09/02 08:39:26;;;;;;;;;;;27.70;91.90;;;;;;5104584;28;20095;-53
2022/09/02 08:42:04;;;;;;;;;;;27.70;91.90;;;;;;5104265;28;19946;-56
2022/09/02 08:44:32;;;;;;;;;;;27.70;92.00;;;;;;5104750;28;20100;-52
2022/09/02 08:47:00;;;;;;;;;;;27.70;92.10;;;;;;5104314;28;20077;-53
2022/09/02 08:49:29;;;;;;;;;;;27.70;92.20;;;;;;5104493;28;19950;-52
2022/09/02 08:51:56;;;;;;;;;;;27.60;92.10;;;;;;5104243;28;19934;-53
2022/09/02 08:54:41;;;;;;;;;;;27.60;92.20;;;;;;5104303;28;19919;-53
2022/09/02 08:57:09;;;;;;;;;;;27.60;92.20;;;;;;5104305;28;19910;-55
2022/09/02 08:59:36;;;;;;;;;;;27.60;92.30;;;;;;5104314;28;20119;-52
2022/09/02 09:02:02;;;;;;;;;;;27.60;92.30;;;;;;5104070;28;19908;-53
2022/09/02 09:04:47;;;;;;;;;;;27.60;92.40;;;;;;5104511;28;19912;-52
2022/09/02 09:07:25;;;;;;;;;;;27.60;92.50;;;;;;5104100;28;19998;-54
2022/09/02 09:09:55;;;;;;;;;;;27.50;92.50;;;;;;5104471;28;19908;-52
2022/09/02 09:12:33;;;;;;;;;;;27.50;92.40;;;;;;5103911;28;19912;-54
2022/09/02 09:15:02;;;;;;;;;;;27.50;92.50;;;;;;5103886;28;19943;-54
2022/09/02 09:17:42;;;;;;;;;;;27.50;92.50;;;;;;5104073;28;19908;-56
2022/09/02 09:20:16;;;;;;;;;;;27.50;92.50;;;;;;5104313;28;19957;-53
2022/09/02 09:22:42;;;;;;;;;;;27.50;92.50;;;;;;5103921;28;19946;-54
2022/09/02 09:25:10;;;;;;;;;;;27.50;92.50;;;;;;5108134;28;19912;-53
2022/09/02 09:27:37;;;;;;;;;;;27.50;92.50;;;;;;5107990;28;20026;-52
2022/09/02 09:30:05;;;;;;;;;;;27.40;92.50;;;;;;5108040;28;19951;-54
2022/09/02 09:32:46;;;;;;;;;;;27.40;92.50;;;;;;5107923;28;20103;-59
2022/09/02 09:35:13;;;;;;;;;;;27.40;92.50;;;;;;5108090;28;20188;-54
2022/09/02 09:37:45;;;;;;;;;;;27.40;92.60;;;;;;5108333;28;19908;-55
2022/09/02 09:40:17;;;;;;;;;;;27.40;92.60;;;;;;5107960;28;19909;-53
2022/09/02 09:42:43;;;;;;;;;;;27.40;92.60;;;;;;5107604;28;19915;-56
2022/09/02 09:45:15;;;;;;;;;;;27.40;92.60;;;;;;5107994;28;19919;-59
2022/09/02 09:47:41;;;;;;;;;;;27.40;92.80;;;;;;5107648;28;19939;-54
2022/09/02 09:50:17;;;;;;;;;;;27.30;92.60;;;;;;5107670;28;19916;-54
2022/09/02 09:52:46;;;;;;;;;;;27.30;92.60;;;;;;5107507;28;19939;-56
2022/09/02 09:55:14;;;;;;;;;;;27.30;92.60;;;;;;5107821;28;19950;-54
2022/09/02 09:57:42;;;;;;;;;;;27.30;92.90;;;;;;5107305;28;19915;-52
2022/09/02 10:00:20;;;;;;;;;;;27.30;92.60;;;;;;5107628;28;20010;-53
2022/09/02 10:02:51;;;;;;;;;;;27.30;92.60;;;;;;5107124;28;19904;-53
2022/09/02 10:05:23;;;;;;;;;;;27.30;92.70;;;;;;5107359;28;19916;-57
2022/09/02 10:07:53;;;;;;;;;;;27.30;92.70;;;;;;5107265;28;20197;-54
2022/09/02 10:10:23;;;;;;;;;;;27.30;92.70;;;;;;5107329;28;19919;-55
2022/09/02 10:12:51;;;;;;;;;;;27.30;92.70;;;;;;5107119;28;19908;-54
2022/09/02 10:15:33;;;;;;;;;;;27.30;92.80;;;;;;5107038;28;19924;-51
2022/09/02 10:18:13;;;;;;;;;;;27.30;92.80;;;;;;5107051;28;19908;-53
2022/09/02 10:20:49;;;;;;;;;;;27.20;92.80;;;;;;5107243;28;19919;-54
2022/09/02 10:23:47;;;;;;;;;;;27.20;92.90;;;;;;5106953;28;19912;-56
2022/09/02 10:26:24;;;;;;;;;;;27.20;92.90;;;;;;5062239;28;19935;-53
2022/09/02 10:29:08;;;;;;;;;;;27.20;92.90;;;;;;5106589;28;19915;-53
2022/09/02 10:31:53;;;;;;;;;;;27.20;92.90;;;;;;5106843;28;19916;-53
2022/09/02 10:34:19;;;;;;;;;;;27.20;92.90;;;;;;5106600;28;19949;-55
2022/09/02 10:37:02;;;;;;;;;;;27.20;93.00;;;;;;5106634;28;19912;-56
2022/09/02 10:39:51;;;;;;;;;;;27.20;93.00;;;;;;5106697;28;19912;-53
2022/09/02 10:42:30;;;;;;;;;;;27.20;93.10;;;;;;5106544;28;19908;-53
2022/09/02 10:44:59;;;;;;;;;;;27.20;93.10;;;;;;5106658;28;19949;-53
2022/09/02 10:47:49;;;;;;;;;;;27.20;93.10;;;;;;5106775;28;19908;-54
2022/09/02 10:50:15;;;;;;;;;;;27.20;93.10;;;;;;5106465;28;19912;-52
2022/09/02 10:52:51;;;;;;;;;;;27.20;93.10;;;;;;5106237;28;19908;-56
2022/09/02 10:55:17;;;;;;;;;;;27.20;93.10;;;;;;5106578;28;19912;-53
2022/09/02 10:57:50;;;;;;;;;;;27.20;93.20;;;;;;5106178;28;19923;-53
2022/09/02 11:00:18;;;;;;;;;;;27.20;93.20;;;;;;5106306;28;19950;-53
2022/09/02 11:02:53;;;;;;;;;;;27.20;93.10;;;;;;5105985;28;19915;-52
2022/09/02 11:05:22;;;;;;;;;;;27.20;93.10;;;;;;5106374;28;19958;-53
2022/09/02 11:08:00;;;;;;;;;;;27.20;93.10;;;;;;5106189;28;19908;-54
2022/09/02 11:10:32;;;;;;;;;;;27.20;93.10;;;;;;5106253;28;20192;-54
2022/09/02 11:13:04;;;;;;;;;;;27.20;93.10;;;;;;5106013;28;19951;-52
2022/09/02 11:15:38;;;;;;;;;;;27.20;93.20;;;;;;5105551;28;20014;-53
2022/09/02 11:18:12;;;;;;;;;;;27.20;93.20;;;;;;5105622;28;19915;-53
2022/09/02 11:20:41;;;;;;;;;;;27.20;93.20;;;;;;5106146;28;19983;-53
2022/09/02 11:23:17;;;;;;;;;;;27.20;93.20;;;;;;5105809;28;20154;-53
2022/09/02 11:25:46;;;;;;;;;;;27.20;93.20;;;;;;5106076;28;19950;-53
2022/09/02 11:28:30;;;;;;;;;;;27.20;93.20;;;;;;5105492;28;19908;-58
2022/09/02 11:31:09;;;;;;;;;;;27.20;93.30;;;;;;5105960;28;19916;-52
2022/09/02 11:33:56;;;;;;;;;;;27.20;93.30;;;;;;5105554;28;20197;-53
2022/09/02 11:36:24;;;;;;;;;;;27.20;93.30;;;;;;5105266;28;19957;-54
2022/09/02 11:38:53;;;;;;;;;;;27.30;93.50;;;;;;5105289;28;19908;-54
2022/09/02 11:41:20;;;;;;;;;;;27.30;93.50;;;;;;5105256;28;20188;-53
2022/09/02 11:43:56;;;;;;;;;;;27.30;93.70;;;;;;5105215;28;19904;-53
2022/09/02 11:46:35;;;;;;;;;;;27.30;93.50;;;;;;5104812;28;19912;-53
2022/09/02 11:49:20;;;;;;;;;;;27.40;93.50;;;;;;5105074;28;19908;-52
2022/09/02 11:52:04;;;;;;;;;;;27.40;93.70;;;;;;5105193;28;19912;-52
2022/09/02 11:54:36;;;;;;;;;;;27.40;93.60;;;;;;5105048;28;19915;-54
2022/09/02 11:57:04;;;;;;;;;;;27.40;93.60;;;;;;5105098;28;19908;-57
2022/09/02 11:59:48;;;;;;;;;;;27.40;93.50;;;;;;5105140;28;19908;-56
2022/09/02 12:02:31;;;;;;;;;;;27.50;93.60;;;;;;5105069;28;19908;-56
2022/09/02 12:05:17;;;;;;;;;;;27.50;93.50;;;;;;5105050;28;20177;-53
2022/09/02 12:07:48;;;;;;;;;;;27.50;93.40;;;;;;5063768;28;20159;-56
2022/09/02 12:10:33;;;;;;;;;;;27.60;93.40;;;;;;5105121;28;20187;-54
2022/09/02 12:13:01;;;;;;;;;;;27.60;93.30;;;;;;5104883;28;20089;-54
2022/09/02 12:15:27;;;;;;;;;;;27.60;93.20;;;;;;5104584;28;20204;-52
2022/09/02 12:17:54;;;;;;;;;;;27.60;93.30;;;;;;5104887;28;19912;-54
2022/09/02 12:20:35;;;;;;;;;;;27.70;93.30;;;;;;5105126;28;20126;-57
2022/09/02 12:23:01;;;;;;;;;;;27.70;93.20;;;;;;5104872;28;20108;-53
2022/09/02 12:25:28;;;;;;;;;;;27.60;93.20;;;;;;5105219;28;20206;-54
2022/09/02 12:28:09;;;;;;;;;;;27.70;93.20;;;;;;5104394;28;19974;-56
2022/09/02 12:33:50;;;;;;;;;;;27.70;93.10;;;;;;5091187;28;19908;-54
2022/09/02 12:36:34;;;;;;;;;;;27.80;93.00;;;;;;5104805;28;19908;-54
2022/09/02 12:39:20;;;;;;;;;;;27.80;92.90;;;;;;5104247;28;19908;-54
2022/09/02 12:41:50;;;;;;;;;;;27.80;92.90;;;;;;5104326;28;19987;-54
2022/09/02 12:44:35;;;;;;;;;;;27.80;92.80;;;;;;5104375;28;19912;-59
2022/09/02 12:47:21;;;;;;;;;;;27.80;92.70;;;;;;5104161;28;19908;-55
2022/09/02 12:50:07;;;;;;;;;;;27.90;92.80;;;;;;5104548;28;19948;-59
2022/09/02 12:52:33;;;;;;;;;;;27.90;92.70;;;;;;5104193;28;19919;-54
2022/09/02 12:55:03;;;;;;;;;;;27.90;92.60;;;;;;5104618;28;19912;-55
2022/09/02 12:57:41;;;;;;;;;;;27.90;92.50;;;;;;5104192;28;19915;-57
2022/09/02 13:00:10;;;;;;;;;;;28.00;92.50;;;;;;5108462;28;19916;-56
2022/09/02 13:02:36;;;;;;;;;;;28.00;92.40;;;;;;5108479;28;19908;-59
2022/09/02 13:05:22;;;;;;;;;;;28.00;92.40;;;;;;5108502;28;19982;-58
2022/09/02 13:08:20;;;;;;;;;;;28.00;92.40;;;;;;5108485;28;19908;-54
2022/09/02 13:10:49;;;;;;;;;;;28.00;92.40;;;;;;5063531;28;19954;-57
2022/09/02 13:13:29;;;;;;;;;;;28.00;92.40;;;;;;5108409;28;19908;-53
2022/09/02 13:16:14;;;;;;;;;;;28.00;92.40;;;;;;5107890;28;19921;-56
2022/09/02 13:18:46;;;;;;;;;;;28.00;92.30;;;;;;5107817;28;20196;-55
2022/09/02 13:21:35;;;;;;;;;;;28.00;92.30;;;;;;5108144;28;19912;-54
2022/09/02 13:24:20;;;;;;;;;;;28.00;92.30;;;;;;5107345;28;19916;-53
2022/09/02 13:26:57;;;;;;;;;;;28.00;92.20;;;;;;5107966;28;20211;-55
2022/09/02 13:29:35;;;;;;;;;;;28.10;92.30;;;;;;5108256;28;19912;-54
2022/09/02 13:32:10;;;;;;;;;;;28.10;92.40;;;;;;5107743;28;19919;-54
2022/09/02 13:34:43;;;;;;;;;;;28.10;92.40;;;;;;5107979;28;19919;-53
2022/09/02 13:37:27;;;;;;;;;;;28.10;92.30;;;;;;5107742;28;19919;-53
2022/09/02 13:39:54;;;;;;;;;;;28.10;92.40;;;;;;5107895;28;19973;-55
2022/09/02 13:42:24;;;;;;;;;;;28.10;92.40;;;;;;5107884;28;19974;-55
2022/09/02 13:44:50;;;;;;;;;;;28.10;92.40;;;;;;5107577;28;19991;-56
2022/09/02 13:47:20;;;;;;;;;;;28.10;92.30;;;;;;5107765;28;19908;-53
2022/09/02 13:49:47;;;;;;;;;;;28.20;92.40;;;;;;5107910;28;19987;-54
2022/09/02 13:52:18;;;;;;;;;;;28.20;92.30;;;;;;5107153;28;19951;-53
2022/09/02 13:54:46;;;;;;;;;;;28.20;92.40;;;;;;5107545;28;19954;-53
2022/09/02 13:57:17;;;;;;;;;;;28.30;92.40;;;;;;5107309;28;19908;-54
2022/09/02 13:59:48;;;;;;;;;;;28.30;92.40;;;;;;5107398;28;19912;-55
2022/09/02 14:02:40;;;;;;;;;;;28.30;92.30;;;;;;5107196;28;19916;-53
2022/09/02 14:05:21;;;;;;;;;;;28.30;92.50;;;;;;5103631;28;19920;-55
2022/09/02 14:07:48;;;;;;;;;;;28.40;92.50;;;;;;5107412;28;19915;-56
2022/09/02 14:10:16;;;;;;;;;;;28.40;92.80;;;;;;5106679;28;19946;-56
2022/09/02 14:12:43;;;;;;;;;;;28.40;92.60;;;;;;5106701;28;20100;-56
2022/09/02 14:15:12;;;;;;;;;;;28.40;92.40;;;;;;5106554;28;20150;-55
2022/09/02 14:17:38;;;;;;;;;;;28.40;92.30;;;;;;5106825;28;19908;-53
2022/09/02 14:20:22;;;;;;;;;;;28.50;92.40;;;;;;5107176;28;19912;-57
2022/09/02 14:22:55;;;;;;;;;;;28.50;92.40;;;;;;5106837;28;19915;-55
2022/09/02 14:25:22;;;;;;;;;;;28.50;92.30;;;;;;5106955;28;19949;-58
2022/09/02 14:27:57;;;;;;;;;;;28.50;92.30;;;;;;5106710;28;19908;-54
2022/09/02 14:30:33;;;;;;;;;;;28.60;92.40;;;;;;5107028;28;19954;-54
2022/09/02 14:33:15;;;;;;;;;;;28.60;92.20;;;;;;5106743;28;19914;-56
2022/09/02 14:35:42;;;;;;;;;;;28.60;92.10;;;;;;5107107;28;20188;-54
2022/09/02 14:38:21;;;;;;;;;;;28.60;92.10;;;;;;5106517;28;19908;-55